createdAt,value
2018-12-22T00:01:40.469Z,1.60
2018-12-22T00:06:43.706Z,1.93
2018-12-22T00:11:46.982Z,1.80
2018-12-22T00:16:50.455Z,2.07
2018-12-22T00:21:53.741Z,1.97
2018-12-22T00:26:57.016Z,2.07
2018-12-22T00:32:00.196Z,1.50
2018-12-22T00:37:03.445Z,2.03
2018-12-22T00:42:06.749Z,1.93
2018-12-22T00:47:10.054Z,2.60
2018-12-22T00:52:13.214Z,1.83
2018-12-22T00:57:16.380Z,2.03
2018-12-22T01:02:19.713Z,2.23
2018-12-22T01:07:22.906Z,1.77
2018-12-22T01:12:26.216Z,2.03
2018-12-22T01:17:29.447Z,1.57
2018-12-22T01:22:32.603Z,1.50
2018-12-22T01:27:35.892Z,1.80
2018-12-22T01:32:39.100Z,1.37
2018-12-22T01:37:42.310Z,1.90
2018-12-22T01:42:45.617Z,2.30
2018-12-22T01:47:49.057Z,1.63
2018-12-22T01:52:52.264Z,1.70
2018-12-22T01:57:55.553Z,2.20
2018-12-22T02:02:58.820Z,2.40
2018-12-22T02:08:02.148Z,2.40
2018-12-22T02:13:05.464Z,2.20
2018-12-22T02:18:08.613Z,2.13
2018-12-22T02:23:11.804Z,2.90
2018-12-22T02:28:14.968Z,2.40
2018-12-22T02:33:18.244Z,2.20
2018-12-22T02:38:21.412Z,2.20
2018-12-22T02:43:24.715Z,2.10
2018-12-22T02:48:28.096Z,2.50
2018-12-22T02:53:31.253Z,2.10
2018-12-22T02:58:34.689Z,1.80
2018-12-22T03:03:37.843Z,1.90
2018-12-22T03:08:41.163Z,1.70
2018-12-22T03:13:44.385Z,1.67
2018-12-22T03:18:47.549Z,1.10
2018-12-22T03:23:50.708Z,0.90
2018-12-22T03:28:53.873Z,1.43
2018-12-22T03:33:57.024Z,1.50
2018-12-22T03:39:00.435Z,1.03
2018-12-22T03:44:03.825Z,1.07
2018-12-22T03:49:07.008Z,1.33
2018-12-22T03:54:10.202Z,0.87
2018-12-22T03:59:13.490Z,0.73
2018-12-22T04:04:16.711Z,1.00
2018-12-22T04:09:19.879Z,1.07
2018-12-22T04:14:23.156Z,1.03
2018-12-22T04:19:26.374Z,0.70
2018-12-22T04:24:29.587Z,1.00
2018-12-22T04:29:33.893Z,1.10
2018-12-22T04:34:37.738Z,1.40
2018-12-22T04:39:40.871Z,1.20
2018-12-22T04:44:44.240Z,1.10
2018-12-22T04:49:47.462Z,1.27
2018-12-22T04:54:50.813Z,1.00
2018-12-22T04:59:54.046Z,0.70
2018-12-22T05:04:57.656Z,1.00
2018-12-22T05:10:00.910Z,1.03
2018-12-22T05:15:04.281Z,1.30
2018-12-22T05:20:07.903Z,0.80
2018-12-22T05:25:11.349Z,1.00
2018-12-22T05:30:14.759Z,0.90
2018-12-22T05:35:17.995Z,0.80
2018-12-22T05:40:21.321Z,0.73
2018-12-22T05:45:24.601Z,0.70
2018-12-22T05:50:27.930Z,1.20
2018-12-22T05:55:31.369Z,1.00
2018-12-22T06:00:34.736Z,0.60
2018-12-22T06:05:38.030Z,0.80
2018-12-22T06:10:41.178Z,0.80
2018-12-22T06:15:44.352Z,0.90
2018-12-22T06:20:47.776Z,1.63
2018-12-22T06:25:51.257Z,1.40
2018-12-22T06:30:54.583Z,2.00
2018-12-22T06:35:57.885Z,2.10
2018-12-22T06:41:01.052Z,1.87
2018-12-22T06:46:04.421Z,1.60
2018-12-22T06:51:07.604Z,1.53
2018-12-22T06:56:10.772Z,2.37
2018-12-22T07:01:14.010Z,3.03
2018-12-22T07:06:17.184Z,2.20
2018-12-22T07:11:20.369Z,1.80
2018-12-22T07:16:23.545Z,1.90
2018-12-22T07:21:27.040Z,1.90
2018-12-22T07:26:30.341Z,1.70
2018-12-22T07:31:33.795Z,1.90
2018-12-22T07:36:36.989Z,1.60
2018-12-22T07:41:40.303Z,2.07
2018-12-22T07:46:43.683Z,4.33
2018-12-22T07:51:46.980Z,1.97
2018-12-22T07:56:50.273Z,1.83
2018-12-22T08:01:53.531Z,1.77
2018-12-22T08:06:56.923Z,1.77
2018-12-22T08:12:00.088Z,1.57
2018-12-22T08:17:03.311Z,2.20
2018-12-22T08:22:08.521Z,1.80
2018-12-22T08:27:12.082Z,1.43
2018-12-22T08:32:15.263Z,1.53
2018-12-22T08:37:18.445Z,1.90
2018-12-22T08:42:22.153Z,2.25
2018-12-22T08:47:25.393Z,1.93
2018-12-22T08:52:28.666Z,1.83
2018-12-22T08:57:31.882Z,2.00
2018-12-22T09:02:35.036Z,2.70
2018-12-22T09:07:38.299Z,2.50
2018-12-22T09:12:41.609Z,3.40
2018-12-22T09:17:44.843Z,2.47
2018-12-22T09:22:48.025Z,2.10
2018-12-22T09:27:51.250Z,2.43
2018-12-22T09:32:54.429Z,2.13
2018-12-22T09:37:57.973Z,2.40
2018-12-22T09:43:01.289Z,1.50
2018-12-22T09:48:04.585Z,1.43
2018-12-22T09:53:09.970Z,1.03
2018-12-22T09:58:13.099Z,1.47
2018-12-22T10:03:16.297Z,1.03
2018-12-22T10:08:19.516Z,0.80
2018-12-22T10:13:22.761Z,0.90
2018-12-22T10:18:25.941Z,0.53
2018-12-22T10:23:29.158Z,0.70
2018-12-22T10:28:32.356Z,0.70
2018-12-22T10:33:35.693Z,0.80
2018-12-22T10:38:38.867Z,0.80
2018-12-22T10:43:42.065Z,1.00
2018-12-22T10:48:45.224Z,1.23
2018-12-22T10:53:48.393Z,0.90
2018-12-22T10:58:51.678Z,0.80
2018-12-22T11:03:54.856Z,0.50
2018-12-22T11:08:58.013Z,0.30
2018-12-22T11:14:01.408Z,0.40
2018-12-22T11:19:04.612Z,0.30
2018-12-22T11:24:07.893Z,0.50
2018-12-22T11:29:11.085Z,0.30
2018-12-22T11:34:14.373Z,0.40
2018-12-22T11:39:17.569Z,0.40
2018-12-22T11:44:20.815Z,0.47
2018-12-22T11:49:34.422Z,0.60
2018-12-22T11:54:37.573Z,0.50
2018-12-22T11:59:40.761Z,0.40
2018-12-22T12:04:43.930Z,0.40
2018-12-22T12:09:47.310Z,0.30
2018-12-22T12:14:50.651Z,0.30
2018-12-22T12:19:54.004Z,0.30
2018-12-22T12:24:57.762Z,0.30
2018-12-22T12:30:01.013Z,0.50
2018-12-22T12:35:04.653Z,0.20
2018-12-22T12:40:10.833Z,0.30
2018-12-22T12:45:14.732Z,0.20
2018-12-22T12:50:19.663Z,0.27
2018-12-22T12:55:22.889Z,0.60
2018-12-22T13:00:26.747Z,0.30
2018-12-22T13:05:30.041Z,0.37
2018-12-22T13:10:33.237Z,0.43
2018-12-22T13:15:36.413Z,0.53
2018-12-22T13:20:39.625Z,0.40
2018-12-22T13:25:42.950Z,0.20
2018-12-22T13:30:46.194Z,0.40
2018-12-22T13:35:49.337Z,0.30
2018-12-22T13:40:52.559Z,0.93
2018-12-22T13:45:55.853Z,0.47
2018-12-22T13:50:59.893Z,0.30
2018-12-22T13:56:03.165Z,0.30
2018-12-22T14:01:10.052Z,0.40
2018-12-22T14:06:19.773Z,0.30
2018-12-22T14:11:23.004Z,0.50
2018-12-22T14:16:32.506Z,0.40
2018-12-22T14:21:35.673Z,0.50
2018-12-22T14:26:38.938Z,0.40
2018-12-22T14:31:42.193Z,0.40
2018-12-22T14:36:45.476Z,0.70
2018-12-22T14:41:48.726Z,0.37
2018-12-22T14:46:52.007Z,0.60
2018-12-22T14:51:55.535Z,0.50
2018-12-22T14:56:58.889Z,0.63
2018-12-22T15:02:02.779Z,0.70
2018-12-22T15:07:06.982Z,0.50
2018-12-22T15:12:10.197Z,0.40
2018-12-22T15:17:13.366Z,0.70
2018-12-22T15:22:16.670Z,1.37
2018-12-22T15:27:19.824Z,1.50
2018-12-22T15:32:22.997Z,1.20
2018-12-22T15:37:26.153Z,1.00
2018-12-22T15:42:29.374Z,1.20
2018-12-22T15:47:32.532Z,1.00
2018-12-22T15:52:35.771Z,1.77
2018-12-22T15:57:39.090Z,1.60
2018-12-22T16:02:42.333Z,1.07
2018-12-22T16:07:45.587Z,0.80
2018-12-22T16:12:48.742Z,0.87
2018-12-22T16:17:51.888Z,0.73
2018-12-22T16:22:58.795Z,0.60
2018-12-22T16:28:36.945Z,0.70
2018-12-22T16:33:40.292Z,0.90
2018-12-22T16:38:43.496Z,0.80
2018-12-22T16:43:49.827Z,0.60
2018-12-22T16:48:53.103Z,0.70
2018-12-22T16:53:56.355Z,0.40
2018-12-22T16:59:00.804Z,0.50
2018-12-22T17:04:04.072Z,0.77
2018-12-22T17:09:08.333Z,1.43
2018-12-22T17:14:11.556Z,0.90
2018-12-22T17:19:14.757Z,1.40
2018-12-22T17:24:31.262Z,1.50
2018-12-22T17:29:34.471Z,1.00
2018-12-22T17:34:37.845Z,3.07
2018-12-22T17:39:41.018Z,1.53
2018-12-22T17:44:44.177Z,1.53
2018-12-22T17:49:47.343Z,1.00
2018-12-22T17:54:50.520Z,1.10
2018-12-22T17:59:53.703Z,1.10
2018-12-22T18:04:56.901Z,1.13
2018-12-22T18:10:00.268Z,1.50
2018-12-22T18:15:04.778Z,1.20
2018-12-22T18:20:08.364Z,0.90
2018-12-22T18:25:13.263Z,0.80
2018-12-22T18:30:16.419Z,1.30
2018-12-22T18:35:20.272Z,1.60
2018-12-22T18:40:23.936Z,2.20
2018-12-22T18:45:27.218Z,1.70
2018-12-22T18:50:30.400Z,2.00
2018-12-22T18:55:33.649Z,1.80
2018-12-22T19:00:36.827Z,1.57
2018-12-22T19:05:40.089Z,1.50
2018-12-22T19:10:48.609Z,1.63
2018-12-22T19:15:52.653Z,1.90
2018-12-22T19:20:55.973Z,1.67
2018-12-22T19:25:59.245Z,1.60
2018-12-22T19:31:02.458Z,1.10
2018-12-22T19:36:05.738Z,1.30
2018-12-22T19:41:08.892Z,1.30
2018-12-22T19:46:12.070Z,1.30
2018-12-22T19:51:15.270Z,1.47
2018-12-22T19:56:18.423Z,1.53
2018-12-22T20:01:21.696Z,1.30
2018-12-22T20:06:24.937Z,2.00
2018-12-22T20:11:28.193Z,2.30
2018-12-22T20:16:31.343Z,2.73
2018-12-22T20:21:34.519Z,1.70
2018-12-22T20:26:37.684Z,1.70
2018-12-22T20:31:40.891Z,1.70
2018-12-22T20:36:44.151Z,2.00
2018-12-22T20:41:47.631Z,2.03
2018-12-22T20:46:50.830Z,1.80
2018-12-22T20:51:54.045Z,1.93
2018-12-22T20:56:57.320Z,3.37
2018-12-22T21:02:00.480Z,3.57
2018-12-22T21:07:03.826Z,2.83
2018-12-22T21:12:07.224Z,6.23
2018-12-22T21:17:10.490Z,2.50
2018-12-22T21:22:13.757Z,2.90
2018-12-22T21:27:16.992Z,6.00
2018-12-22T21:32:20.285Z,3.00
2018-12-22T21:37:23.581Z,4.10
2018-12-22T21:42:26.941Z,4.83
2018-12-22T21:47:30.178Z,3.13
2018-12-22T21:52:33.449Z,5.83
2018-12-22T21:57:36.722Z,7.50
2018-12-22T22:02:40.108Z,8.17
2018-12-22T22:07:43.360Z,6.07
2018-12-22T22:12:46.558Z,2.60
2018-12-22T22:17:49.746Z,1.77
2018-12-22T22:22:53.004Z,3.13
2018-12-22T22:27:56.372Z,1.87
2018-12-22T22:32:59.641Z,1.90
2018-12-22T22:38:03.738Z,1.57
2018-12-22T22:43:07.010Z,1.50
2018-12-22T22:48:10.189Z,1.70
2018-12-22T22:53:13.514Z,1.93
2018-12-22T22:58:16.843Z,1.70
2018-12-22T23:03:20.121Z,1.30
2018-12-22T23:08:23.335Z,1.47
2018-12-22T23:13:26.674Z,1.40
2018-12-22T23:18:29.855Z,1.27
2018-12-22T23:23:33.221Z,1.40
2018-12-22T23:28:36.582Z,1.80
2018-12-22T23:33:40.026Z,1.40
2018-12-22T23:38:43.292Z,1.20
2018-12-22T23:43:46.490Z,1.30
2018-12-22T23:48:49.816Z,1.40
2018-12-22T23:53:53.020Z,1.30
2018-12-22T23:58:56.906Z,1.40
